Time;durP1;ratioP1;P1;durP2;ratioP2;P2;SDS_P1;SDS_P2;PMS_P1;PMS_P2;Temp;Humidity;BMP_temperature;BMP_pressure;BME280_temperature;BME280_humidity;BME280_pressure;Samples;Min_cycle;Max_cycle;Signal;HPM_P1;HPM_P2
2023/04/11 00:00:32;;;;;;;1999.90;999.90;;;10.60;99.90;;;;;;4993511;28;20778;-69
2023/04/11 00:03:00;;;;;;;1999.90;999.90;;;10.60;99.90;;;;;;4992989;28;20189;-69
2023/04/11 00:05:32;;;;;;;1999.90;999.90;;;10.70;99.90;;;;;;4993404;28;20162;-69
2023/04/11 00:07:57;;;;;;;1999.90;999.90;;;10.60;99.90;;;;;;4993318;28;20440;-69
2023/04/11 00:10:23;;;;;;;1999.90;999.90;;;10.60;99.90;;;;;;4993288;28;20443;-69
2023/04/11 00:12:49;;;;;;;1999.90;999.90;;;10.60;99.90;;;;;;4992941;28;20221;-70
2023/04/11 00:15:15;;;;;;;1999.90;999.90;;;10.60;99.90;;;;;;4993201;28;20417;-69
2023/04/11 00:17:44;;;;;;;1999.90;999.90;;;10.50;99.90;;;;;;4993033;28;20208;-69
2023/04/11 00:20:11;;;;;;;1999.90;999.90;;;10.60;99.90;;;;;;4993254;28;20404;-69
2023/04/11 00:22:37;;;;;;;1999.90;999.90;;;10.50;99.90;;;;;;4992618;28;20459;-69
2023/04/11 00:25:04;;;;;;;1999.90;999.90;;;10.40;99.90;;;;;;4993014;28;20411;-69
2023/04/11 00:27:29;;;;;;;1999.90;999.90;;;10.40;99.90;;;;;;4993028;28;20409;-69
2023/04/11 00:29:56;;;;;;;1999.90;999.90;;;10.40;99.90;;;;;;4993073;28;20425;-69
2023/04/11 00:32:23;;;;;;;1999.90;999.90;;;10.40;99.90;;;;;;4992716;28;20623;-68
2023/04/11 00:34:48;;;;;;;1999.90;999.90;;;10.40;99.90;;;;;;4992950;28;20408;-69
2023/04/11 00:37:14;;;;;;;1999.90;999.90;;;10.50;99.90;;;;;;4992772;28;20452;-69
2023/04/11 00:39:39;;;;;;;1999.90;999.90;;;10.50;99.90;;;;;;4992902;28;20178;-68
2023/04/11 00:42:06;;;;;;;1999.90;999.90;;;10.40;99.90;;;;;;4992164;28;20243;-68
2023/04/11 00:44:33;;;;;;;1999.90;999.90;;;10.40;99.90;;;;;;4992392;28;20713;-69
2023/04/11 00:47:01;;;;;;;1999.90;999.90;;;10.40;99.90;;;;;;4992770;28;20415;-69
2023/04/11 00:49:27;;;;;;;1999.90;999.90;;;10.40;99.90;;;;;;4992727;28;20415;-69
2023/04/11 00:51:53;;;;;;;1999.90;999.90;;;10.40;99.90;;;;;;4992387;28;20459;-69
2023/04/11 00:54:19;;;;;;;1999.90;999.90;;;10.40;99.90;;;;;;4992605;28;20804;-69
2023/04/11 00:56:44;;;;;;;1999.90;999.90;;;10.40;99.90;;;;;;4992553;28;20453;-69
2023/04/11 00:59:10;;;;;;;1999.90;999.90;;;10.40;99.90;;;;;;4992666;28;20212;-68
2023/04/11 01:01:37;;;;;;;1999.90;999.90;;;10.30;99.90;;;;;;4992468;28;20247;-68
2023/04/11 01:04:03;;;;;;;1999.90;999.90;;;10.30;99.90;;;;;;4992556;28;20423;-68
2023/04/11 01:06:31;;;;;;;1999.90;999.90;;;10.20;99.90;;;;;;4992508;28;20772;-70
2023/04/11 01:08:56;;;;;;;1999.90;999.90;;;10.20;99.90;;;;;;4992517;28;20498;-70
2023/04/11 01:11:23;;;;;;;1999.90;999.90;;;10.20;99.90;;;;;;4992280;28;20445;-68
2023/04/11 01:13:49;;;;;;;1999.90;999.90;;;10.10;99.90;;;;;;4992507;28;20192;-68
2023/04/11 01:16:20;;;;;;;1999.90;999.90;;;10.10;99.90;;;;;;4992375;28;20550;-69
2023/04/11 01:18:46;;;;;;;1999.90;999.90;;;10.00;99.90;;;;;;4992495;28;20404;-71
2023/04/11 01:21:12;;;;;;;1999.90;999.90;;;10.10;99.90;;;;;;4992134;28;20496;-71
2023/04/11 01:23:38;;;;;;;1999.90;999.90;;;10.00;99.90;;;;;;4992255;28;20539;-72
2023/04/11 01:26:03;;;;;;;1999.90;999.90;;;10.00;99.90;;;;;;4992395;28;20173;-69
2023/04/11 01:28:29;;;;;;;1999.90;999.90;;;10.00;99.90;;;;;;4992485;28;20610;-69
2023/04/11 01:30:56;;;;;;;1999.90;999.90;;;10.00;99.90;;;;;;4992110;28;20209;-68
2023/04/11 01:33:22;;;;;;;1999.90;999.90;;;10.00;99.90;;;;;;4992234;28;20198;-69
2023/04/11 01:35:47;;;;;;;1999.90;999.90;;;9.90;99.90;;;;;;4992241;28;20420;-71
2023/04/11 01:38:13;;;;;;;1999.90;999.90;;;9.80;99.90;;;;;;4992348;28;20181;-71
2023/04/11 01:40:40;;;;;;;1999.90;999.90;;;9.90;99.90;;;;;;4992415;28;20709;-71
2023/04/11 01:43:08;;;;;;;1999.90;999.90;;;9.80;99.90;;;;;;4992033;28;20427;-72
2023/04/11 01:45:34;;;;;;;1999.90;999.90;;;9.80;99.90;;;;;;4992201;28;20442;-71
2023/04/11 01:48:05;;;;;;;1999.90;999.90;;;9.70;99.90;;;;;;4992203;28;20448;-72
2023/04/11 01:50:31;;;;;;;1999.90;999.90;;;9.70;99.90;;;;;;4992432;28;20428;-71
2023/04/11 01:52:57;;;;;;;1999.90;999.90;;;9.80;99.90;;;;;;4991873;28;20466;-72
2023/04/11 01:55:22;;;;;;;1999.90;999.90;;;9.70;99.90;;;;;;4994838;28;20173;-72
2023/04/11 01:57:48;;;;;;;1999.90;999.90;;;9.70;99.90;;;;;;4995703;28;20212;-72
2023/04/11 02:00:14;;;;;;;1999.90;999.90;;;9.80;99.90;;;;;;4995686;28;20191;-71
2023/04/11 02:02:40;;;;;;;1999.90;999.90;;;9.70;99.90;;;;;;4995347;28;20204;-69
2023/04/11 02:05:06;;;;;;;1999.90;999.90;;;9.50;99.90;;;;;;4995978;28;20759;-69
2023/04/11 02:07:31;;;;;;;1999.90;999.90;;;9.60;99.90;;;;;;4995663;28;20464;-71
2023/04/11 02:09:57;;;;;;;1999.90;999.90;;;9.60;99.90;;;;;;4995664;28;20181;-71
2023/04/11 02:12:23;;;;;;;1999.90;999.90;;;9.50;99.90;;;;;;4995190;28;20201;-71
2023/04/11 02:14:49;;;;;;;1999.90;999.90;;;9.40;99.90;;;;;;4995435;28;20209;-72
2023/04/11 02:17:17;;;;;;;1999.90;999.90;;;9.40;99.90;;;;;;4995287;28;20552;-71
2023/04/11 02:19:44;;;;;;;1999.90;999.90;;;9.40;99.90;;;;;;4995326;28;20498;-72
2023/04/11 02:22:11;;;;;;;1999.90;999.90;;;9.40;99.90;;;;;;4995239;28;20411;-73
2023/04/11 02:24:37;;;;;;;1999.90;999.90;;;9.30;99.90;;;;;;4995645;28;20442;-72
2023/04/11 02:27:02;;;;;;;1999.90;999.90;;;9.20;99.90;;;;;;4995424;28;20444;-72
2023/04/11 02:29:28;;;;;;;1999.90;999.90;;;9.30;99.90;;;;;;4995355;28;20407;-72
2023/04/11 02:31:54;;;;;;;1999.90;999.90;;;9.30;99.90;;;;;;4994992;28;20427;-72
2023/04/11 02:34:23;;;;;;;1999.90;999.90;;;9.30;99.90;;;;;;4995288;28;20231;-72
2023/04/11 02:36:48;;;;;;;1999.90;999.90;;;9.30;99.90;;;;;;4995211;28;20286;-71
2023/04/11 02:39:14;;;;;;;1999.90;999.90;;;9.20;99.90;;;;;;4995193;28;20416;-71
2023/04/11 02:41:41;;;;;;;1999.90;999.90;;;9.20;99.90;;;;;;4994763;28;20180;-71
2023/04/11 02:44:08;;;;;;;1999.90;999.90;;;9.10;99.90;;;;;;4994882;28;20855;-71
2023/04/11 02:46:34;;;;;;;1999.90;999.90;;;9.10;99.90;;;;;;4994869;28;20800;-71
2023/04/11 02:49:00;;;;;;;1999.90;999.90;;;9.10;99.90;;;;;;4994898;28;20418;-71
2023/04/11 02:51:26;;;;;;;1999.90;999.90;;;9.10;99.90;;;;;;4994553;28;20190;-73
2023/04/11 02:53:51;;;;;;;1999.90;999.90;;;9.00;99.90;;;;;;4994849;28;20713;-70
2023/04/11 02:56:18;;;;;;;1999.90;999.90;;;9.00;99.90;;;;;;4994602;28;20451;-68
2023/04/11 02:58:44;;;;;;;1999.90;999.90;;;9.10;99.90;;;;;;4994774;28;20174;-72
2023/04/11 03:01:10;;;;;;;1999.90;999.90;;;9.00;99.90;;;;;;4994315;28;20421;-73
2023/04/11 03:03:37;;;;;;;1999.90;999.90;;;9.00;99.90;;;;;;4994483;28;20532;-73
2023/04/11 03:06:05;;;;;;;1999.90;999.90;;;8.90;99.90;;;;;;4993803;28;20444;-73
2023/04/11 03:08:31;;;;;;;1999.90;999.90;;;8.90;99.90;;;;;;4994524;28;20820;-71
2023/04/11 03:10:56;;;;;;;1999.90;999.90;;;8.90;99.90;;;;;;4994229;28;20410;-71
2023/04/11 03:13:22;;;;;;;1999.90;999.90;;;8.80;99.90;;;;;;4994280;28;20281;-73
2023/04/11 03:15:48;;;;;;;1999.90;999.90;;;8.90;99.90;;;;;;4994735;28;20180;-74
2023/04/11 03:18:13;;;;;;;1999.90;999.90;;;8.80;99.90;;;;;;4994669;28;20177;-74
2023/04/11 03:20:39;;;;;;;1999.90;999.90;;;8.80;99.90;;;;;;4994216;28;20178;-73
2023/04/11 03:23:04;;;;;;;1999.90;999.90;;;8.80;99.90;;;;;;4993771;28;20231;-73
2023/04/11 03:25:30;;;;;;;1999.90;999.90;;;8.80;99.90;;;;;;4994224;28;20295;-74
2023/04/11 03:27:56;;;;;;;1999.90;999.90;;;8.80;99.90;;;;;;4994116;28;20207;-73
2023/04/11 03:30:21;;;;;;;1999.90;999.90;;;9.00;99.90;;;;;;4994027;28;20176;-74
2023/04/11 03:32:47;;;;;;;1999.90;999.90;;;8.70;99.90;;;;;;4993694;28;20198;-73
2023/04/11 03:35:13;;;;;;;1999.90;999.90;;;8.90;99.90;;;;;;4994045;28;20543;-74
2023/04/11 03:37:39;;;;;;;1999.90;999.90;;;8.90;99.90;;;;;;4993992;28;20812;-73
2023/04/11 03:40:07;;;;;;;1999.90;999.90;;;8.90;99.90;;;;;;4993981;28;20477;-72
2023/04/11 03:42:34;;;;;;;1999.90;999.90;;;8.90;99.90;;;;;;4993428;28;20204;-74
2023/04/11 03:45:00;;;;;;;1999.90;999.90;;;8.90;99.90;;;;;;4993769;28;20450;-73
2023/04/11 03:47:25;;;;;;;1999.90;999.90;;;8.80;99.90;;;;;;4993917;28;20426;-71
2023/04/11 03:49:51;;;;;;;1999.90;999.90;;;8.70;99.90;;;;;;4993739;28;20633;-71
2023/04/11 03:52:17;;;;;;;1999.90;999.90;;;8.80;99.90;;;;;;4993345;28;20606;-71
2023/04/11 03:54:42;;;;;;;1999.90;999.90;;;8.80;99.90;;;;;;4993635;28;20191;-71
2023/04/11 03:57:09;;;;;;;1999.90;999.90;;;8.80;99.90;;;;;;4993405;28;20497;-71
2023/04/11 03:59:34;;;;;;;1999.90;999.90;;;8.80;99.90;;;;;;4993504;28;20226;-71
2023/04/11 04:02:00;;;;;;;1999.90;999.90;;;8.90;99.90;;;;;;4993368;28;20439;-71
2023/04/11 04:04:26;;;;;;;1999.90;999.90;;;8.70;99.90;;;;;;4993449;28;20654;-71
2023/04/11 04:06:55;;;;;;;1999.90;999.90;;;8.80;99.90;;;;;;4993462;28;20180;-70
2023/04/11 04:09:24;;;;;;;1999.90;999.90;;;8.80;99.90;;;;;;4993374;28;20180;-73
2023/04/11 04:11:49;;;;;;;1999.90;999.90;;;8.80;99.90;;;;;;4992976;28;20908;-72
2023/04/11 04:14:15;;;;;;;1999.90;999.90;;;8.80;99.90;;;;;;4993245;28;20447;-73
2023/04/11 04:16:41;;;;;;;1999.90;999.90;;;8.90;99.90;;;;;;4993178;28;20205;-74
2023/04/11 04:19:06;;;;;;;1999.90;999.90;;;8.80;99.90;;;;;;4993227;28;20655;-73
2023/04/11 04:21:32;;;;;;;1999.90;999.90;;;8.80;99.90;;;;;;4993006;28;20189;-71
2023/04/11 04:24:02;;;;;;;1999.90;999.90;;;8.80;99.90;;;;;;4992953;28;20221;-69
2023/04/11 04:26:29;;;;;;;1999.90;999.90;;;8.90;99.90;;;;;;4992914;28;20418;-69
2023/04/11 04:29:03;;;;;;;1999.90;999.90;;;8.90;99.90;;;;;;4993254;28;20510;-69
2023/04/11 04:31:33;;;;;;;1999.90;999.90;;;8.90;99.90;;;;;;4992922;28;20437;-72
2023/04/11 04:34:08;;;;;;;1999.90;999.90;;;8.90;99.90;;;;;;4993098;28;20518;-72
2023/04/11 04:36:47;;;;;;;1999.90;999.90;;;8.90;99.90;;;;;;4992822;28;20455;-73
2023/04/11 04:39:17;;;;;;;1999.90;999.90;;;8.90;99.90;;;;;;4992925;28;20462;-72
2023/04/11 04:41:47;;;;;;;1999.90;999.90;;;8.90;99.90;;;;;;4992503;28;20458;-69
2023/04/11 04:44:17;;;;;;;1999.90;999.90;;;9.00;99.90;;;;;;4992731;28;20428;-72
2023/04/11 04:46:43;;;;;;;1999.90;999.90;;;8.90;99.90;;;;;;4992856;28;20791;-72
2023/04/11 04:49:09;;;;;;;1999.90;999.90;;;8.80;99.90;;;;;;4992781;28;20455;-72
2023/04/11 04:51:36;;;;;;;1999.90;999.90;;;8.80;99.90;;;;;;4992375;28;20604;-72
2023/04/11 04:54:03;;;;;;;1999.90;999.90;;;8.90;99.90;;;;;;4992610;28;20456;-71
2023/04/11 04:56:29;;;;;;;1999.90;999.90;;;8.90;99.90;;;;;;4992605;28;20513;-70
2023/04/11 04:58:56;;;;;;;1999.90;999.90;;;8.90;99.90;;;;;;4992654;28;20494;-73
2023/04/11 05:01:25;;;;;;;1999.90;999.90;;;8.80;99.90;;;;;;4992325;28;20502;-72
2023/04/11 05:03:57;;;;;;;1999.90;999.90;;;8.80;99.90;;;;;;4992561;28;20436;-72
2023/04/11 05:06:26;;;;;;;1999.90;999.90;;;8.80;99.90;;;;;;4992639;28;20416;-72
2023/04/11 05:08:52;;;;;;;1999.90;999.90;;;8.80;99.90;;;;;;4992591;28;20401;-71
2023/04/11 05:11:17;;;;;;;1999.90;999.90;;;8.80;99.90;;;;;;4992259;28;20430;-73
2023/04/11 05:13:43;;;;;;;1999.90;999.90;;;8.80;99.90;;;;;;4992461;28;20577;-73
2023/04/11 05:16:09;;;;;;;1999.90;999.90;;;8.80;99.90;;;;;;4992473;28;20194;-72
2023/04/11 05:18:35;;;;;;;1999.90;999.90;;;8.80;99.90;;;;;;4992455;28;20230;-72
2023/04/11 05:21:01;;;;;;;1999.90;999.90;;;8.80;99.90;;;;;;4992209;28;20963;-72
2023/04/11 05:23:26;;;;;;;1999.90;999.90;;;8.70;99.90;;;;;;4992297;28;20199;-72
2023/04/11 05:25:52;;;;;;;1999.90;999.90;;;8.80;99.90;;;;;;4992415;28;20219;-72
2023/04/11 05:28:17;;;;;;;1999.90;999.90;;;8.80;99.90;;;;;;4992411;28;20169;-73
2023/04/11 05:30:43;;;;;;;1999.90;999.90;;;8.70;99.90;;;;;;4995828;28;20711;-72
2023/04/11 05:33:08;;;;;;;1999.90;999.90;;;8.70;99.90;;;;;;4995867;28;20196;-69
2023/04/11 05:35:34;;;;;;;1999.90;999.90;;;8.70;99.90;;;;;;4996238;28;20259;-72
2023/04/11 05:38:00;;;;;;;1999.90;999.90;;;8.80;99.90;;;;;;4996098;28;20351;-73
2023/04/11 05:40:25;;;;;;;1999.90;999.90;;;8.80;99.90;;;;;;4996206;28;20180;-69
2023/04/11 05:42:51;;;;;;;1999.90;999.90;;;8.80;99.90;;;;;;4995785;28;20203;-69
2023/04/11 05:45:16;;;;;;;1999.90;999.90;;;8.80;99.90;;;;;;4996038;28;20708;-70
2023/04/11 05:47:42;;;;;;;1999.90;999.90;;;8.90;99.90;;;;;;4995981;28;20255;-70
2023/04/11 05:50:09;;;;;;;1999.90;999.90;;;8.90;99.90;;;;;;4996183;28;20173;-72
2023/04/11 05:52:34;;;;;;;1999.90;999.90;;;8.90;99.90;;;;;;4995505;28;20282;-73
2023/04/11 05:55:00;;;;;;;1999.90;999.90;;;9.00;99.90;;;;;;4995958;28;20476;-72
2023/04/11 05:57:26;;;;;;;1999.90;999.90;;;9.00;99.90;;;;;;4995773;28;20214;-73
2023/04/11 05:59:52;;;;;;;1999.90;999.90;;;9.00;99.90;;;;;;4995809;28;20477;-74
2023/04/11 06:02:18;;;;;;;1999.90;999.90;;;9.00;99.90;;;;;;4995385;28;20248;-74
2023/04/11 06:04:43;;;;;;;1999.90;999.90;;;9.10;99.90;;;;;;4995682;28;20404;-74
2023/04/11 06:07:09;;;;;;;1999.90;999.90;;;9.10;99.90;;;;;;4995702;28;20173;-73
2023/04/11 06:09:35;;;;;;;1999.90;999.90;;;9.10;99.90;;;;;;4995796;28;20550;-74
2023/04/11 06:12:01;;;;;;;1999.90;999.90;;;9.10;99.90;;;;;;4995170;28;20422;-70
2023/04/11 06:14:26;;;;;;;1999.90;999.90;;;9.30;99.90;;;;;;4995527;28;20225;-72
2023/04/11 06:16:53;;;;;;;1999.90;999.90;;;9.20;99.90;;;;;;4995524;28;20467;-74
2023/04/11 06:19:18;;;;;;;1999.90;999.90;;;9.20;99.90;;;;;;4995491;28;20169;-74
2023/04/11 06:21:44;;;;;;;1999.90;999.90;;;9.20;99.90;;;;;;4995142;28;20407;-74
2023/04/11 06:24:10;;;;;;;1999.90;999.90;;;9.20;99.90;;;;;;4995212;28;20204;-73
2023/04/11 06:26:36;;;;;;;1999.90;999.90;;;9.20;99.90;;;;;;4995300;28;20204;-72
2023/04/11 06:29:06;;;;;;;1999.90;999.90;;;9.10;99.90;;;;;;4995317;28;20411;-73
2023/04/11 06:31:32;;;;;;;1999.90;999.90;;;9.10;99.90;;;;;;4995021;28;20975;-73
2023/04/11 06:33:59;;;;;;;1999.90;999.90;;;9.00;99.90;;;;;;4995096;28;20450;-72
2023/04/11 06:36:25;;;;;;;1999.90;999.90;;;9.00;99.90;;;;;;4995254;28;20589;-72
2023/04/11 06:38:51;;;;;;;1999.90;999.90;;;9.00;99.90;;;;;;4995156;28;20404;-72
2023/04/11 06:41:17;;;;;;;1999.90;999.90;;;9.00;99.90;;;;;;4993491;28;20399;-72
2023/04/11 06:43:42;;;;;;;1999.90;999.90;;;9.10;99.90;;;;;;4994902;28;20216;-72
2023/04/11 06:46:08;;;;;;;1999.90;999.90;;;9.00;99.90;;;;;;4994913;28;20168;-72
2023/04/11 06:48:34;;;;;;;1999.90;999.90;;;9.00;99.90;;;;;;4994911;28;20223;-73
2023/04/11 06:50:59;;;;;;;1999.90;999.90;;;9.00;99.90;;;;;;4994674;28;20543;-72
2023/04/11 06:53:25;;;;;;;1999.90;999.90;;;9.10;99.90;;;;;;4994706;28;20778;-71
2023/04/11 06:55:51;;;;;;;1999.90;999.90;;;9.10;99.90;;;;;;4994797;28;20164;-72
2023/04/11 06:58:16;;;;;;;1999.90;999.90;;;9.10;99.90;;;;;;4994654;28;20205;-72
2023/04/11 07:00:42;;;;;;;1999.90;999.90;;;9.10;99.90;;;;;;4994570;28;20208;-73
2023/04/11 07:03:07;;;;;;;1999.90;999.90;;;9.20;99.90;;;;;;4994405;28;20184;-72
2023/04/11 07:05:36;;;;;;;1999.90;999.90;;;9.40;99.90;;;;;;4994626;28;20639;-72
2023/04/11 07:08:02;;;;;;;1999.90;999.90;;;9.30;99.90;;;;;;4994490;28;20796;-71
2023/04/11 07:10:28;;;;;;;1999.90;999.90;;;9.30;99.90;;;;;;4994574;28;20417;-74
2023/04/11 07:12:54;;;;;;;1999.90;999.90;;;9.40;99.90;;;;;;4994129;28;20204;-73
2023/04/11 07:15:20;;;;;;;1999.90;999.90;;;9.50;99.90;;;;;;4994373;28;20227;-74
2023/04/11 07:17:47;;;;;;;1999.90;999.90;;;9.50;99.90;;;;;;4994173;28;20468;-73
2023/04/11 07:20:12;;;;;;;1999.90;999.90;;;9.80;99.90;;;;;;4994290;28;20403;-72
2023/04/11 07:22:41;;;;;;;1999.90;999.90;;;9.70;99.90;;;;;;4993810;28;20451;-73
2023/04/11 07:25:07;;;;;;;1999.90;999.90;;;9.60;99.90;;;;;;4994269;28;20718;-73
2023/04/11 07:27:35;;;;;;;1999.90;999.90;;;9.70;99.90;;;;;;4994132;28;20416;-73
2023/04/11 07:30:01;;;;;;;1999.90;999.90;;;9.60;99.90;;;;;;4994104;28;20416;-74
2023/04/11 07:32:26;;;;;;;1999.90;999.90;;;9.60;99.90;;;;;;4993780;28;20468;-73
2023/04/11 07:34:52;;;;;;;1999.90;999.90;;;9.50;99.90;;;;;;4994060;28;20410;-74
2023/04/11 07:37:18;;;;;;;1999.90;999.90;;;9.60;99.90;;;;;;4993963;28;20208;-74
2023/04/11 07:39:44;;;;;;;1999.90;999.90;;;9.80;99.90;;;;;;4993979;28;20176;-73
2023/04/11 07:42:09;;;;;;;1999.90;999.90;;;10.20;99.90;;;;;;4993548;28;20220;-73
2023/04/11 07:44:35;;;;;;;1999.90;999.90;;;10.00;99.90;;;;;;4993883;28;20173;-71
2023/04/11 07:47:01;;;;;;;1999.90;999.90;;;10.10;99.90;;;;;;4993958;28;20783;-73
2023/04/11 07:49:26;;;;;;;1999.90;999.90;;;10.00;99.90;;;;;;4993956;28;20185;-73
2023/04/11 07:51:52;;;;;;;1999.90;999.90;;;9.90;99.90;;;;;;4993088;28;20659;-74
2023/04/11 07:54:18;;;;;;;1999.90;999.90;;;9.90;99.90;;;;;;4993598;28;20203;-73
2023/04/11 07:56:44;;;;;;;1999.90;999.90;;;10.10;99.90;;;;;;4993544;28;20210;-71
2023/04/11 07:59:12;;;;;;;1999.90;999.90;;;10.30;99.90;;;;;;4993670;28;20161;-73
2023/04/11 08:01:37;;;;;;;1999.90;999.90;;;10.30;99.90;;;;;;4993466;28;20178;-74
2023/04/11 08:04:03;;;;;;;1999.90;999.90;;;10.20;99.90;;;;;;4993426;28;20531;-73
2023/04/11 08:06:30;;;;;;;1999.90;999.90;;;10.20;99.90;;;;;;4993385;28;20174;-73
2023/04/11 08:08:57;;;;;;;1999.90;999.90;;;10.30;99.90;;;;;;4993420;28;20169;-70
2023/04/11 08:11:23;;;;;;;1999.90;999.90;;;10.20;99.90;;;;;;4989388;28;20429;-71
2023/04/11 08:13:49;;;;;;;1999.90;999.90;;;10.30;99.90;;;;;;4988657;28;20435;-72
2023/04/11 08:16:15;;;;;;;1999.90;999.90;;;10.20;99.90;;;;;;4989089;28;20424;-70
2023/04/11 08:18:41;;;;;;;1999.90;999.90;;;10.40;99.90;;;;;;4989270;28;20256;-71
2023/04/11 08:21:08;;;;;;;1999.90;999.90;;;10.40;99.90;;;;;;4988601;28;20212;-71
2023/04/11 08:23:33;;;;;;;1999.90;999.90;;;10.60;99.90;;;;;;4989582;28;20459;-71
2023/04/11 08:25:59;;;;;;;1999.90;999.90;;;10.60;99.90;;;;;;4988722;28;20958;-70
2023/04/11 08:28:25;;;;;;;1999.90;999.90;;;10.80;99.90;;;;;;4985678;28;20588;-69
2023/04/11 08:30:57;;;;;;;1999.90;999.90;;;11.00;99.90;;;;;;4988998;28;20951;-69
2023/04/11 08:33:24;;;;;;;1999.90;999.90;;;10.90;99.90;;;;;;4988947;28;20301;-70
2023/04/11 08:35:49;;;;;;;1999.90;999.90;;;10.90;99.90;;;;;;4988710;28;20416;-69
2023/04/11 08:38:15;;;;;;;1999.90;999.90;;;10.90;99.90;;;;;;4988622;28;20461;-70
2023/04/11 08:40:41;;;;;;;1999.90;999.90;;;11.00;99.90;;;;;;4998627;28;20205;-70
2023/04/11 08:43:10;;;;;;;1999.90;999.90;;;11.00;99.90;;;;;;4989827;28;20206;-69
2023/04/11 08:45:38;;;;;;;1999.90;999.90;;;10.90;99.90;;;;;;4988554;28;20188;-70
2023/04/11 08:48:05;;;;;;;1999.90;999.90;;;11.20;99.90;;;;;;4989087;28;20416;-69
2023/04/11 08:50:32;;;;;;;1999.90;999.90;;;11.00;99.90;;;;;;4987592;28;20891;-70
2023/04/11 08:53:01;;;;;;;1999.90;999.90;;;11.20;99.90;;;;;;4987799;28;20443;-70
2023/04/11 08:55:27;;;;;;;1999.90;999.90;;;11.40;99.90;;;;;;4988757;28;20451;-69
2023/04/11 08:57:55;;;;;;;1999.90;999.90;;;11.50;99.90;;;;;;4987459;28;20464;-69
2023/04/11 09:00:23;;;;;;;1999.90;999.90;;;11.60;99.90;;;;;;4987942;28;20174;-70
2023/04/11 09:03:05;;;;;;;1999.90;999.90;;;11.60;99.90;;;;;;4988330;28;20437;-70
2023/04/11 09:05:32;;;;;;;1999.90;999.90;;;11.60;99.90;;;;;;4987174;28;20451;-70
2023/04/11 09:08:00;;;;;;;1999.90;999.90;;;11.80;99.90;;;;;;4988737;28;20796;-70
2023/04/11 09:10:26;;;;;;;1999.90;999.90;;;11.70;99.90;;;;;;4988041;28;20443;-70
2023/04/11 09:12:53;;;;;;;1999.90;999.90;;;11.50;99.90;;;;;;4985996;28;20476;-70
2023/04/11 09:15:26;;;;;;;1999.90;999.90;;;11.30;99.90;;;;;;4988683;28;20944;-69
2023/04/11 09:17:53;;;;;;;1999.90;999.90;;;11.20;99.90;;;;;;4988271;28;20459;-70
2023/04/11 09:20:29;;;;;;;1999.90;999.90;;;11.30;99.90;;;;;;4987175;28;20440;-70
2023/04/11 09:22:55;;;;;;;1999.90;999.90;;;11.60;99.90;;;;;;4987022;28;20456;-69
2023/04/11 09:25:22;;;;;;;1999.90;999.90;;;11.70;99.90;;;;;;4988441;28;20420;-71
2023/04/11 09:27:49;;;;;;;1999.90;999.90;;;11.80;99.90;;;;;;4988485;28;20417;-70
2023/04/11 09:30:21;;;;;;;1999.90;999.90;;;12.00;99.90;;;;;;4989983;28;20467;-70
2023/04/11 09:32:47;;;;;;;1999.90;999.90;;;12.00;99.90;;;;;;4988335;28;20449;-71
2023/04/11 09:35:24;;;;;;;1999.90;999.90;;;12.00;99.90;;;;;;4988212;28;20528;-70
2023/04/11 09:37:57;;;;;;;1999.90;999.90;;;11.90;99.90;;;;;;4989927;28;20463;-69
2023/04/11 09:40:30;;;;;;;1999.90;999.90;;;11.90;99.90;;;;;;4990532;28;20419;-69
2023/04/11 09:43:00;;;;;;;1999.90;999.90;;;11.90;99.90;;;;;;4987390;28;20436;-69
2023/04/11 09:45:27;;;;;;;1999.90;999.90;;;11.90;99.90;;;;;;4987743;28;20430;-69
2023/04/11 09:47:55;;;;;;;1999.90;999.90;;;12.00;99.90;;;;;;4988279;28;20424;-70
2023/04/11 09:50:22;;;;;;;1999.90;999.90;;;12.40;99.90;;;;;;4989437;28;20534;-71
2023/04/11 09:52:48;;;;;;;1999.90;999.90;;;12.10;99.90;;;;;;4987718;28;20816;-71
2023/04/11 09:55:17;;;;;;;1999.90;999.90;;;12.80;99.90;;;;;;4989614;28;20432;-69
2023/04/11 09:57:47;;;;;;;1999.90;999.90;;;12.20;99.90;;;;;;5002466;28;20457;-69
2023/04/11 10:00:17;;;;;;;1999.90;999.90;;;12.20;99.90;;;;;;5008586;28;20419;-69
2023/04/11 10:02:51;;;;;;;1999.90;999.90;;;12.30;99.90;;;;;;5007924;28;20534;-71
2023/04/11 10:05:18;;;;;;;1999.90;999.90;;;12.30;99.90;;;;;;5007215;28;20454;-75
2023/04/11 10:07:51;;;;;;;1999.90;999.90;;;12.30;99.90;;;;;;5008201;28;20434;-71
2023/04/11 10:10:19;;;;;;;1999.90;999.90;;;12.60;99.90;;;;;;5007834;28;20457;-72
2023/04/11 10:12:45;;;;;;;1999.90;999.90;;;12.70;99.90;;;;;;5005871;28;20451;-72
2023/04/11 10:15:11;;;;;;;1999.90;999.90;;;12.80;99.90;;;;;;5007648;28;20423;-72
2023/04/11 10:17:39;;;;;;;1999.90;999.90;;;12.80;99.90;;;;;;5011212;28;20466;-72
2023/04/11 10:20:42;;;;;;;1999.90;999.90;;;12.70;99.90;;;;;;5010196;28;20421;-70
2023/04/11 10:23:09;;;;;;;1999.90;999.90;;;12.70;99.90;;;;;;4998583;28;20545;-71
2023/04/11 10:25:55;;;;;;;1999.90;999.90;;;12.90;99.90;;;;;;5010680;28;20409;-70
2023/04/11 10:28:32;;;;;;;1999.90;999.90;;;12.90;99.90;;;;;;5009913;28;20479;-70
2023/04/11 10:31:02;;;;;;;1999.90;999.90;;;13.00;99.90;;;;;;5009728;28;20422;-70
2023/04/11 10:33:29;;;;;;;1999.90;999.90;;;13.00;99.90;;;;;;5010415;28;20433;-72
2023/04/11 10:36:04;;;;;;;1999.90;999.90;;;12.90;99.90;;;;;;5010463;28;20484;-73
2023/04/11 10:38:47;;;;;;;1999.90;999.90;;;12.70;99.90;;;;;;5010692;28;21227;-71
2023/04/11 10:41:21;;;;;;;1999.90;999.90;;;12.80;99.90;;;;;;5010337;28;20804;-72
2023/04/11 10:43:47;;;;;;;1999.90;999.90;;;13.00;99.90;;;;;;5010518;28;20425;-71
2023/04/11 10:46:42;;;;;;;1999.90;999.90;;;13.20;99.90;;;;;;5009908;28;20533;-71
2023/04/11 10:49:07;;;;;;;1999.90;999.90;;;13.40;99.90;;;;;;5010196;28;20419;-73
2023/04/11 10:51:33;;;;;;;1999.90;999.90;;;13.40;99.90;;;;;;5010075;28;20414;-72
2023/04/11 10:54:00;;;;;;;1999.90;999.90;;;13.30;99.90;;;;;;5009786;28;20308;-72
2023/04/11 10:56:49;;;;;;;1999.90;999.90;;;13.40;96.40;;;;;;5010058;28;20293;-72
2023/04/11 10:59:31;;;;;;;1999.90;999.90;;;13.40;95.20;;;;;;5010029;28;20501;-71
2023/04/11 11:02:00;;;;;;;1999.90;999.90;;;13.50;99.70;;;;;;5009676;28;20829;-72
2023/04/11 11:04:34;;;;;;;1999.90;999.90;;;13.50;97.50;;;;;;5009156;28;20416;-71
2023/04/11 11:07:01;;;;;;;1999.90;999.90;;;13.60;92.80;;;;;;5009789;28;20447;-73
2023/04/11 11:09:27;;;;;;;1999.90;999.90;;;13.30;90.20;;;;;;5010511;28;20425;-72
2023/04/11 11:12:06;;;;;;;1999.90;999.90;;;13.20;91.20;;;;;;5009004;28;20571;-71
2023/04/11 11:14:32;;;;;;;1999.90;999.90;;;13.40;93.50;;;;;;5009617;28;20816;-72
2023/04/11 11:16:57;;;;;;;1999.90;999.90;;;13.50;94.20;;;;;;5009214;28;20470;-73
2023/04/11 11:19:23;;;;;;;1999.90;999.90;;;13.40;84.10;;;;;;5009710;28;20173;-72
2023/04/11 11:21:50;;;;;;;1999.90;999.90;;;13.60;94.10;;;;;;5009224;28;20172;-71
2023/04/11 11:24:23;;;;;;;1999.90;999.90;;;13.80;92.40;;;;;;5009275;28;20215;-72
2023/04/11 11:26:49;;;;;;;1999.90;999.90;;;14.10;93.50;;;;;;5008724;28;20458;-73
2023/04/11 11:29:15;;;;;;;1999.90;999.90;;;14.50;98.40;;;;;;5009426;28;20449;-72
2023/04/11 11:31:46;;;;;;;1999.90;999.90;;;14.60;79.70;;;;;;5008768;28;20429;-71
2023/04/11 11:34:12;;;;;;;1999.90;999.90;;;14.30;77.50;;;;;;5008855;28;20439;-72
2023/04/11 11:36:41;;;;;;;1999.90;999.90;;;14.10;81.60;;;;;;5009785;28;20477;-72
2023/04/11 11:39:09;;;;;;;1999.90;999.90;;;14.10;80.00;;;;;;5009062;28;20446;-72
2023/04/11 11:41:36;;;;;;;1999.90;999.90;;;14.10;70.70;;;;;;5008412;28;20419;-71
2023/04/11 11:44:02;;;;;;;1999.90;999.90;;;14.20;75.20;;;;;;5009604;28;20807;-71
2023/04/11 11:46:30;;;;;;;1999.90;999.90;;;14.30;78.90;;;;;;5008921;28;20454;-72
2023/04/11 11:49:00;;;;;;;1999.90;999.90;;;14.50;77.10;;;;;;5008441;28;20420;-72
2023/04/11 11:51:38;;;;;;;1999.90;999.90;;;15.00;78.80;;;;;;5009090;28;20421;-73
2023/04/11 11:54:09;;;;;;;1999.90;999.90;;;15.00;64.30;;;;;;5009201;28;20441;-73
2023/04/11 11:56:38;;;;;;;1999.90;999.90;;;14.90;65.30;;;;;;5008979;28;20551;-71
2023/04/11 11:59:05;;;;;;;1999.90;999.90;;;14.80;66.60;;;;;;5009001;28;20409;-72
2023/04/11 12:01:35;;;;;;;1999.90;999.90;;;15.40;69.00;;;;;;5008401;28;20494;-71
2023/04/11 12:04:01;;;;;;;1999.90;999.90;;;16.00;57.80;;;;;;5008532;28;20428;-72